Time;durP1;ratioP1;P1;durP2;ratioP2;P2;SDS_P1;SDS_P2;PMS_P1;PMS_P2;Temp;Humidity;BMP_temperature;BMP_pressure;BME280_temperature;BME280_humidity;BME280_pressure;Samples;Min_cycle;Max_cycle;Signal;HPM_P1;HPM_P2
2022/11/24 00:01:16;;;;;;;;;3.25;0.50;;;;;11.92;69.44;100335.53;4860449;29;45525;-65
2022/11/24 00:03:51;;;;;;;;;5.50;3.00;;;;;11.83;69.40;100323.41;4849554;29;47037;-64
2022/11/24 00:06:17;;;;;;;;;5.50;2.00;;;;;11.86;69.45;100327.72;4864589;29;45734;-65
2022/11/24 00:08:44;;;;;;;;;7.00;3.00;;;;;11.89;69.62;100324.06;4865607;29;45419;-65
2022/11/24 00:11:15;;;;;;;;;5.75;1.50;;;;;11.82;69.48;100318.13;4864648;29;45515;-64
2022/11/24 00:13:41;;;;;;;;;4.00;2.75;;;;;11.90;69.59;100325.81;4865102;29;46013;-64
2022/11/24 00:16:10;;;;;;;;;4.75;3.00;;;;;11.89;69.82;100326.75;4866081;29;45517;-65
2022/11/24 00:18:35;;;;;;;;;5.75;2.00;;;;;11.90;69.79;100333.84;4865468;29;45368;-65
2022/11/24 00:21:00;;;;;;;;;5.25;2.75;;;;;11.91;69.79;100338.22;4865379;29;45371;-64
2022/11/24 00:23:26;;;;;;;;;4.25;2.25;;;;;11.91;69.64;100340.91;4865942;29;46201;-65
2022/11/24 00:25:51;;;;;;;;;2.75;2.50;;;;;11.77;69.79;100326.34;4866164;29;45509;-65
2022/11/24 00:28:16;;;;;;;;;5.25;2.75;;;;;11.87;69.57;100326.81;4864858;29;45479;-65
2022/11/24 00:30:42;;;;;;;;;5.25;3.50;;;;;11.88;69.98;100328.56;4865741;29;53292;-65
2022/11/24 00:33:07;;;;;;;;;3.75;2.00;;;;;11.84;69.38;100318.91;4862014;29;47101;-65
2022/11/24 00:35:32;;;;;;;;;6.00;3.00;;;;;11.79;69.73;100292.38;4863508;29;49835;-65
2022/11/24 00:37:58;;;;;;;;;1.75;0.25;;;;;11.90;69.94;100302.59;4864803;29;45321;-64
2022/11/24 00:40:23;;;;;;;;;3.00;2.25;;;;;11.89;69.63;100300.00;4865327;29;45612;-65
2022/11/24 00:42:48;;;;;;;;;5.00;2.00;;;;;11.92;69.65;100303.44;4865028;29;46474;-65
2022/11/24 00:45:14;;;;;;;;;5.00;2.00;;;;;11.85;70.10;100272.53;4865587;29;45355;-64
2022/11/24 00:47:39;;;;;;;;;2.50;2.50;;;;;11.89;69.79;100282.13;4865856;29;45360;-65
2022/11/24 00:50:05;;;;;;;;;3.50;1.50;;;;;11.90;69.61;100275.00;4846066;29;52006;-65
2022/11/24 00:52:30;;;;;;;;;2.00;1.00;;;;;11.89;69.62;100281.28;4864709;29;46243;-65
2022/11/24 00:54:55;;;;;;;;;5.00;0.75;;;;;11.92;69.45;100281.16;4864752;29;45599;-65
2022/11/24 00:57:20;;;;;;;;;3.50;2.25;;;;;11.91;69.45;100292.75;4865557;29;45409;-65
2022/11/24 00:59:46;;;;;;;;;0.75;0.50;;;;;11.87;69.13;100267.97;4847266;29;45579;-65
2022/11/24 01:02:11;;;;;;;;;4.25;1.00;;;;;11.87;69.32;100230.53;4853470;29;55142;-64
2022/11/24 01:04:36;;;;;;;;;2.75;1.00;;;;;11.92;68.97;100270.47;4865340;29;48396;-65
2022/11/24 01:07:02;;;;;;;;;1.25;1.00;;;;;11.92;69.07;100281.16;4865256;29;48165;-65
2022/11/24 01:09:27;;;;;;;;;0.25;0.25;;;;;11.96;68.41;100298.81;4863262;29;45561;-65
2022/11/24 01:12:01;;;;;;;;;1.50;1.00;;;;;11.94;68.63;100288.16;4864826;29;46179;-65
2022/11/24 01:14:27;;;;;;;;;2.50;0.25;;;;;11.98;68.51;100300.50;4864315;29;47105;-65
2022/11/24 01:16:53;;;;;;;;;3.25;0.00;;;;;11.97;68.07;100303.22;4865661;29;45567;-65
2022/11/24 01:19:19;;;;;;;;;1.75;1.75;;;;;11.98;67.92;100313.84;4864437;29;45581;-65
2022/11/24 01:21:45;;;;;;;;;0.25;0.00;;;;;11.91;68.05;100309.72;4863699;29;45465;-65
2022/11/24 01:24:11;;;;;;;;;1.25;1.25;;;;;11.96;67.74;100341.59;4864923;29;45495;-65
2022/11/24 01:26:37;;;;;;;;;1.00;0.75;;;;;11.97;67.92;100341.53;4865204;29;45584;-64
2022/11/24 01:29:03;;;;;;;;;2.00;0.50;;;;;11.95;67.46;100343.41;4863865;29;45333;-65
2022/11/24 01:31:29;;;;;;;;;0.00;0.00;;;;;11.95;67.79;100354.13;4864284;29;46433;-65
2022/11/24 01:33:54;;;;;;;;;0.00;0.00;;;;;11.95;67.44;100348.75;4862798;29;45618;-65
2022/11/24 01:36:21;;;;;;;;;0.75;0.00;;;;;11.95;67.53;100356.78;4863278;29;45876;-65
2022/11/24 01:38:46;;;;;;;;;0.00;0.00;;;;;11.94;67.46;100360.38;4863646;29;45575;-65
2022/11/24 01:41:14;;;;;;;;;0.00;0.00;;;;;11.96;67.54;100382.63;4864457;29;46331;-65
2022/11/24 01:43:42;;;;;;;;;1.50;1.00;;;;;11.96;67.45;100384.41;4865033;29;45340;-65
2022/11/24 01:46:37;;;;;;;;;0.00;0.00;;;;;11.98;67.53;100393.25;4860765;29;45380;-64
2022/11/24 01:49:05;;;;;;;;;0.00;0.00;;;;;11.98;67.50;100396.78;4854583;29;45449;-65
2022/11/24 01:51:34;;;;;;;;;0.00;0.00;;;;;11.99;67.37;100390.47;4863100;29;46183;-65
2022/11/24 01:54:10;;;;;;;;;1.00;1.00;;;;;11.90;67.56;100379.31;4853882;29;45336;-65
2022/11/24 01:56:39;;;;;;;;;3.50;1.75;;;;;12.02;67.78;100392.16;4864660;29;45340;-65
2022/11/24 01:59:08;;;;;;;;;0.75;0.00;;;;;11.99;67.43;100394.97;4862350;29;45518;-65
2022/11/24 02:01:33;;;;;;;;;1.50;0.75;;;;;11.95;67.40;100398.72;4852476;29;45329;-65
2022/11/24 02:04:03;;;;;;;;;2.25;0.75;;;;;12.00;67.55;100413.63;4865055;29;45320;-65
2022/11/24 02:06:34;;;;;;;;;1.00;0.00;;;;;11.99;67.53;100421.72;4847526;29;45571;-66
2022/11/24 02:09:06;;;;;;;;;0.00;0.00;;;;;11.99;67.73;100419.91;4865151;29;45365;-65
2022/11/24 02:11:35;;;;;;;;;0.50;0.50;;;;;12.00;67.96;100426.13;4870544;29;45942;-64
2022/11/24 02:14:01;;;;;;;;;1.50;0.00;;;;;12.03;67.81;100431.38;4869434;29;45561;-65
2022/11/24 02:16:28;;;;;;;;;2.50;0.50;;;;;12.02;67.80;100437.63;4869257;29;45615;-65
2022/11/24 02:18:54;;;;;;;;;0.00;0.00;;;;;11.97;67.75;100436.97;4868885;29;45489;-65
2022/11/24 02:21:19;;;;;;;;;1.50;0.50;;;;;11.99;67.73;100451.13;4853508;29;47057;-65
2022/11/24 02:23:50;;;;;;;;;2.00;0.00;;;;;12.04;67.96;100449.13;4870560;29;45385;-65
2022/11/24 02:26:16;;;;;;;;;0.50;0.00;;;;;12.01;67.85;100450.16;4870563;29;45559;-65
2022/11/24 02:28:41;;;;;;;;;1.00;1.00;;;;;12.01;67.87;100455.50;4849086;29;45593;-64
2022/11/24 02:31:07;;;;;;;;;0.00;0.00;;;;;11.99;67.91;100459.16;4869315;29;45649;-65
2022/11/24 02:33:33;;;;;;;;;1.00;1.00;;;;;12.00;67.85;100464.44;4869221;29;45494;-65
2022/11/24 02:35:59;;;;;;;;;1.00;1.00;;;;;11.96;67.85;100470.88;4870691;29;45357;-65
2022/11/24 02:38:34;;;;;;;;;1.75;0.00;;;;;11.92;68.14;100466.59;4869554;29;45526;-65
2022/11/24 02:41:04;;;;;;;;;0.00;0.00;;;;;11.87;68.06;100466.72;4858470;29;45345;-65
2022/11/24 02:43:34;;;;;;;;;4.50;1.75;;;;;11.86;68.65;100474.81;4869726;29;45692;-64
2022/11/24 02:45:59;;;;;;;;;1.75;0.50;;;;;11.89;68.52;100495.22;4870745;29;45386;-65
2022/11/24 02:48:25;;;;;;;;;0.25;0.25;;;;;11.80;68.61;100483.13;4869018;29;45310;-64
2022/11/24 02:50:50;;;;;;;;;1.25;1.00;;;;;11.85;68.48;100507.88;4867953;29;46418;-65
2022/11/24 02:53:15;;;;;;;;;2.00;1.50;;;;;11.81;68.75;100499.09;4870061;29;45430;-65
2022/11/24 02:55:41;;;;;;;;;2.00;1.00;;;;;11.83;68.74;100512.41;4852544;29;45322;-65
2022/11/24 02:58:06;;;;;;;;;1.25;0.00;;;;;11.90;68.90;100523.72;4868951;29;45332;-65
2022/11/24 03:00:31;;;;;;;;;0.75;0.50;;;;;11.88;68.73;100521.13;4863216;29;55254;-65
2022/11/24 03:02:57;;;;;;;;;1.00;1.00;;;;;11.91;68.74;100525.44;4863235;29;45448;-64
2022/11/24 03:05:22;;;;;;;;;3.00;0.75;;;;;11.91;69.01;100530.81;4870284;29;45449;-64
2022/11/24 03:07:48;;;;;;;;;1.00;1.00;;;;;11.91;69.46;100520.09;4869080;29;45452;-64
2022/11/24 03:10:13;;;;;;;;;1.25;0.50;;;;;11.85;69.31;100529.25;4867087;29;45365;-64
2022/11/24 03:12:39;;;;;;;;;4.00;1.00;;;;;11.87;69.27;100546.97;4869794;29;45356;-64
2022/11/24 03:15:05;;;;;;;;;1.00;1.00;;;;;11.88;68.84;100553.22;4870563;29;45469;-65
2022/11/24 03:17:30;;;;;;;;;0.00;0.00;;;;;11.89;69.17;100562.09;4870127;29;45321;-65
2022/11/24 03:19:56;;;;;;;;;3.00;0.00;;;;;11.89;69.09;100575.47;4852264;29;48181;-65
2022/11/24 03:22:21;;;;;;;;;1.00;1.00;;;;;11.86;69.48;100566.66;4850237;29;45583;-65
2022/11/24 03:24:47;;;;;;;;;2.75;0.00;;;;;11.87;69.35;100568.38;4866428;29;45369;-65
2022/11/24 03:27:12;;;;;;;;;0.25;0.25;;;;;11.83;69.35;100565.91;4866911;29;45460;-65
2022/11/24 03:29:37;;;;;;;;;0.75;0.00;;;;;11.83;69.35;100576.59;4866050;29;46709;-65
2022/11/24 03:32:03;;;;;;;;;0.00;0.00;;;;;11.77;69.50;100566.16;4866221;29;45398;-64
2022/11/24 03:34:29;;;;;;;;;3.00;1.00;;;;;11.79;69.64;100578.50;4866448;29;45498;-65
2022/11/24 03:36:54;;;;;;;;;2.00;0.00;;;;;11.79;69.42;100583.00;4866724;29;45462;-65
2022/11/24 03:39:19;;;;;;;;;2.50;0.00;;;;;11.80;69.68;100574.06;4864786;29;47769;-64
2022/11/24 03:41:45;;;;;;;;;2.75;0.00;;;;;11.79;69.23;100570.47;4865231;29;47894;-65
2022/11/24 03:44:10;;;;;;;;;5.00;2.00;;;;;11.81;69.53;100573.09;4866410;29;45514;-65
2022/11/24 03:46:35;;;;;;;;;1.25;0.00;;;;;11.81;69.65;100574.00;4866335;29;56400;-65
2022/11/24 03:49:00;;;;;;;;;3.75;1.00;;;;;11.80;69.30;100576.72;4865903;29;48145;-65
2022/11/24 03:51:26;;;;;;;;;2.75;1.00;;;;;11.81;69.45;100570.41;4860016;29;45480;-64
2022/11/24 03:53:51;;;;;;;;;2.00;1.00;;;;;11.83;69.65;100571.25;4865338;29;45426;-65
2022/11/24 03:56:16;;;;;;;;;0.00;0.00;;;;;11.82;69.32;100575.72;4866183;29;49384;-65
2022/11/24 03:58:42;;;;;;;;;2.50;0.50;;;;;11.76;69.62;100565.28;4847797;29;47069;-65
2022/11/24 04:01:07;;;;;;;;;0.50;0.00;;;;;11.85;69.40;100582.75;4838338;29;45379;-65
2022/11/24 04:03:33;;;;;;;;;4.00;1.50;;;;;11.86;69.23;100590.72;4864934;29;45316;-65
2022/11/24 04:05:58;;;;;;;;;3.00;1.00;;;;;11.80;69.37;100592.78;4866204;29;45443;-65
2022/11/24 04:08:23;;;;;;;;;1.25;0.00;;;;;11.84;69.22;100597.94;4865195;29;48320;-65
2022/11/24 04:10:51;;;;;;;;;0.00;0.00;;;;;11.84;69.43;100607.75;4849471;29;45316;-65
2022/11/24 04:13:19;;;;;;;;;1.00;0.00;;;;;11.82;69.42;100604.28;4865386;29;45639;-65
2022/11/24 04:15:44;;;;;;;;;3.50;0.00;;;;;11.79;69.55;100602.56;4866344;29;45789;-64
2022/11/24 04:18:11;;;;;;;;;0.75;0.75;;;;;11.84;69.56;100621.13;4863047;29;45896;-65
2022/11/24 04:20:36;;;;;;;;;1.00;1.00;;;;;11.83;69.37;100620.25;4862653;29;45386;-65
2022/11/24 04:23:02;;;;;;;;;1.00;1.00;;;;;11.78;69.46;100611.53;4849340;29;45378;-65
2022/11/24 04:25:27;;;;;;;;;2.25;0.00;;;;;11.80;69.36;100620.38;4866247;29;45583;-65
2022/11/24 04:27:54;;;;;;;;;1.25;1.25;;;;;11.79;69.65;100610.59;4865794;29;45674;-65
2022/11/24 04:30:21;;;;;;;;;0.25;0.25;;;;;11.80;69.56;100615.03;4865371;29;45531;-65
2022/11/24 04:32:47;;;;;;;;;2.50;1.00;;;;;11.75;69.26;100629.53;4864874;29;45533;-65
2022/11/24 04:35:12;;;;;;;;;1.50;0.50;;;;;11.73;69.55;100621.56;4843855;29;46281;-64
2022/11/24 04:37:38;;;;;;;;;1.00;0.50;;;;;11.71;69.60;100620.75;4865605;29;45330;-65
2022/11/24 04:40:05;;;;;;;;;1.00;1.00;;;;;11.67;69.64;100633.34;4864928;29;45507;-65
2022/11/24 04:42:31;;;;;;;;;2.00;1.00;;;;;11.67;69.60;100641.38;4836839;29;45433;-65
2022/11/24 04:44:56;;;;;;;;;1.00;1.00;;;;;11.60;69.74;100629.16;4865959;29;45426;-65
2022/11/24 04:47:24;;;;;;;;;0.00;0.00;;;;;11.63;69.69;100634.41;4865850;29;46209;-65
2022/11/24 04:49:49;;;;;;;;;1.00;0.50;;;;;11.63;69.37;100638.88;4844287;29;45477;-64
2022/11/24 04:52:16;;;;;;;;;2.00;1.00;;;;;11.60;69.84;100647.03;4865107;29;45402;-65
2022/11/24 04:54:42;;;;;;;;;2.00;0.75;;;;;11.58;69.84;100651.56;4864507;29;45608;-65
2022/11/24 04:57:17;;;;;;;;;0.25;0.25;;;;;11.60;69.59;100653.22;4863913;29;45229;-65
2022/11/24 04:59:42;;;;;;;;;0.25;0.00;;;;;11.59;69.60;100651.47;4864554;29;45666;-64
2022/11/24 05:02:08;;;;;;;;;4.75;2.00;;;;;11.62;69.75;100658.53;4851251;29;45531;-65
2022/11/24 05:04:33;;;;;;;;;1.00;1.00;;;;;11.62;69.63;100663.88;4865616;29;45313;-65
2022/11/24 05:06:59;;;;;;;;;2.25;0.00;;;;;11.59;69.51;100670.19;4844177;29;47776;-64
2022/11/24 05:09:24;;;;;;;;;2.50;1.00;;;;;11.57;69.54;100671.19;4864611;29;45293;-65
2022/11/24 05:11:49;;;;;;;;;1.00;1.00;;;;;11.61;69.81;100668.34;4862713;29;45550;-65
2022/11/24 05:14:15;;;;;;;;;0.00;0.00;;;;;11.61;69.60;100673.69;4865485;29;45478;-65
2022/11/24 05:16:40;;;;;;;;;2.00;1.00;;;;;11.59;69.62;100667.53;4864924;29;52843;-65
2022/11/24 05:19:05;;;;;;;;;1.25;0.50;;;;;11.49;69.52;100655.44;4864647;29;45694;-65
2022/11/24 05:21:31;;;;;;;;;2.25;1.00;;;;;11.52;69.66;100673.19;4863961;29;45335;-65
2022/11/24 05:23:56;;;;;;;;;2.50;1.75;;;;;11.49;69.89;100675.03;4864829;29;45732;-64
2022/11/24 05:26:22;;;;;;;;;0.00;0.00;;;;;11.53;69.53;100681.13;4865130;29;46961;-64
2022/11/24 05:28:47;;;;;;;;;2.25;2.00;;;;;11.52;69.42;100681.19;4863377;29;47869;-64
2022/11/24 05:31:12;;;;;;;;;1.00;1.00;;;;;11.52;69.57;100683.88;4865359;29;45811;-65
2022/11/24 05:33:38;;;;;;;;;2.25;1.25;;;;;11.51;69.58;100680.34;4862446;29;55280;-65
2022/11/24 05:36:06;;;;;;;;;1.75;1.00;;;;;11.48;69.33;100678.63;4860668;29;48377;-65
2022/11/24 05:38:32;;;;;;;;;2.25;0.50;;;;;11.51;69.31;100691.03;4842785;29;45374;-65
2022/11/24 05:41:04;;;;;;;;;2.50;2.00;;;;;11.50;69.68;100683.91;4864185;29;45349;-65
2022/11/24 05:43:29;;;;;;;;;2.00;1.00;;;;;11.45;69.71;100686.75;4863611;29;45588;-65
2022/11/24 05:46:04;;;;;;;;;1.00;1.00;;;;;11.46;69.40;100692.97;4864594;29;45391;-65
2022/11/24 05:48:29;;;;;;;;;2.00;0.00;;;;;11.43;69.87;100690.44;4864990;29;45378;-65
2022/11/24 05:50:56;;;;;;;;;3.00;1.00;;;;;11.46;69.69;100691.19;4863853;29;45394;-65
2022/11/24 05:53:22;;;;;;;;;0.75;0.75;;;;;11.47;69.45;100689.38;4850570;29;46070;-65
2022/11/24 05:55:48;;;;;;;;;2.75;1.25;;;;;11.48;69.49;100708.03;4864798;29;45350;-64
2022/11/24 05:58:13;;;;;;;;;1.00;1.00;;;;;11.46;69.68;100700.97;4863755;29;45486;-65
2022/11/24 06:00:38;;;;;;;;;2.25;1.00;;;;;11.44;69.64;100703.75;4855773;29;45500;-65
2022/11/24 06:03:04;;;;;;;;;1.00;1.00;;;;;11.43;69.89;100709.13;4859605;29;45456;-65
2022/11/24 06:05:30;;;;;;;;;3.00;1.25;;;;;11.42;69.90;100720.75;4864600;29;45335;-65
2022/11/24 06:07:55;;;;;;;;;2.50;1.25;;;;;11.42;69.69;100718.94;4864565;29;45352;-65
2022/11/24 06:10:24;;;;;;;;;1.25;1.25;;;;;11.39;69.82;100718.19;4864119;29;45626;-65
2022/11/24 06:12:50;;;;;;;;;1.00;1.00;;;;;11.42;69.94;100724.28;4861586;29;45461;-65
2022/11/24 06:15:16;;;;;;;;;2.75;2.00;;;;;11.39;69.83;100727.06;4862569;29;46329;-65
2022/11/24 06:17:42;;;;;;;;;1.75;1.00;;;;;11.37;69.88;100720.03;4862364;29;45625;-65
2022/11/24 06:20:09;;;;;;;;;1.50;1.50;;;;;11.39;69.64;100724.38;4864059;29;45363;-64
2022/11/24 06:22:35;;;;;;;;;2.00;1.00;;;;;11.41;69.69;100730.56;4863729;29;45326;-65
2022/11/24 06:25:00;;;;;;;;;1.00;1.00;;;;;11.35;69.87;100716.56;4864486;29;46152;-64
2022/11/24 06:27:26;;;;;;;;;2.00;2.00;;;;;11.35;69.84;100721.91;4863437;29;45440;-65
2022/11/24 06:29:51;;;;;;;;;1.00;1.00;;;;;11.37;69.76;100734.28;4863887;29;45332;-65
2022/11/24 06:32:17;;;;;;;;;5.00;1.00;;;;;11.42;69.93;100745.66;4861987;29;45358;-65
2022/11/24 06:34:42;;;;;;;;;3.00;1.00;;;;;11.40;69.62;100744.00;4863670;29;46258;-65
2022/11/24 06:37:07;;;;;;;;;3.75;1.00;;;;;11.36;69.75;100731.66;4862940;29;45514;-65
2022/11/24 06:39:33;;;;;;;;;1.00;1.00;;;;;11.38;69.74;100736.03;4861510;29;45464;-65
2022/11/24 06:41:59;;;;;;;;;2.00;1.00;;;;;11.34;69.60;100744.19;4842604;29;45568;-65
2022/11/24 06:44:24;;;;;;;;;1.00;1.00;;;;;11.36;69.96;100751.25;4837425;29;46847;-66
2022/11/24 06:46:49;;;;;;;;;3.50;2.00;;;;;11.34;69.63;100749.53;4863090;29;45394;-65
2022/11/24 06:49:15;;;;;;;;;4.00;3.00;;;;;11.28;69.93;100748.84;4863367;29;45383;-65
2022/11/24 06:51:41;;;;;;;;;2.00;1.25;;;;;11.39;69.71;100764.47;4862441;29;45384;-66
2022/11/24 06:54:08;;;;;;;;;1.75;1.25;;;;;11.35;69.86;100757.50;4858785;29;47393;-66
2022/11/24 06:56:33;;;;;;;;;1.75;1.00;;;;;11.33;69.92;100767.38;4866190;29;45341;-66
2022/11/24 06:58:58;;;;;;;;;3.00;3.00;;;;;11.31;69.65;100774.59;4850622;29;45598;-66
2022/11/24 07:01:25;;;;;;;;;2.00;2.00;;;;;11.33;70.10;100778.06;4848208;29;45527;-67
2022/11/24 07:03:52;;;;;;;;;3.00;1.25;;;;;11.36;69.88;100786.00;4865881;29;45552;-66
2022/11/24 07:06:19;;;;;;;;;5.00;2.75;;;;;11.27;69.69;100779.16;4865661;29;45363;-66
2022/11/24 07:08:45;;;;;;;;;1.25;1.25;;;;;11.27;70.09;100786.31;4867554;29;45495;-66
2022/11/24 07:11:22;;;;;;;;;1.00;1.00;;;;;11.31;70.24;100804.84;4866347;29;45520;-66
2022/11/24 07:13:50;;;;;;;;;2.75;2.75;;;;;11.32;70.12;100808.38;4861342;29;45541;-66
2022/11/24 07:16:23;;;;;;;;;1.00;1.00;;;;;11.24;70.16;100800.66;4848600;29;45822;-66
2022/11/24 07:18:50;;;;;;;;;3.50;3.00;;;;;11.29;70.31;100814.72;4874369;29;45623;-65
2022/11/24 07:21:16;;;;;;;;;1.75;1.75;;;;;11.27;70.09;100811.22;4866293;29;45818;-65
2022/11/24 07:23:42;;;;;;;;;3.50;2.00;;;;;11.22;70.21;100807.81;4865504;29;45476;-65
2022/11/24 07:26:09;;;;;;;;;3.00;2.00;;;;;11.21;70.42;100808.78;4866392;29;45635;-65
2022/11/24 07:28:35;;;;;;;;;2.00;2.00;;;;;11.17;70.56;100812.47;4867125;29;45309;-65
2022/11/24 07:31:09;;;;;;;;;3.00;2.00;;;;;11.17;70.57;100816.94;4865705;29;45270;-66
2022/11/24 07:33:35;;;;;;;;;6.25;2.25;;;;;11.19;70.65;100825.75;4866189;29;46293;-65
2022/11/24 07:36:01;;;;;;;;;4.00;4.00;;;;;11.18;70.78;100832.91;4866617;29;45341;-65
2022/11/24 07:38:28;;;;;;;;;2.00;2.00;;;;;11.16;70.84;100810.72;4864574;29;47098;-65
2022/11/24 07:40:53;;;;;;;;;5.00;3.00;;;;;11.19;70.86;100826.63;4862180;29;45325;-66
2022/11/24 07:43:18;;;;;;;;;3.25;3.00;;;;;11.20;70.78;100830.19;4866660;29;47406;-65
2022/11/24 07:45:50;;;;;;;;;3.00;3.00;;;;;11.13;71.13;100806.34;4849636;29;50179;-65
2022/11/24 07:48:16;;;;;;;;;3.00;2.00;;;;;11.15;70.87;100816.13;4865660;29;45415;-65
2022/11/24 07:50:41;;;;;;;;;2.00;2.00;;;;;11.20;70.74;100822.19;4865614;29;45465;-65
2022/11/24 07:53:06;;;;;;;;;4.00;3.00;;;;;11.21;70.45;100837.25;4844835;29;47246;-66
2022/11/24 07:55:32;;;;;;;;;3.00;2.00;;;;;11.12;71.06;100833.97;4862349;29;45299;-66
2022/11/24 07:58:00;;;;;;;;;3.00;2.25;;;;;11.21;71.12;100847.94;4865019;29;45377;-65
2022/11/24 08:00:26;;;;;;;;;5.25;4.00;;;;;11.13;70.60;100840.22;4862438;29;45462;-65
2022/11/24 08:02:52;;;;;;;;;5.25;3.00;;;;;11.22;71.04;100863.94;4863041;29;45495;-65
2022/11/24 08:05:17;;;;;;;;;8.00;4.25;;;;;11.21;70.95;100864.00;4864969;29;45396;-65
2022/11/24 08:07:42;;;;;;;;;3.75;2.25;;;;;11.19;71.00;100866.72;4861280;29;45931;-65
2022/11/24 08:10:08;;;;;;;;;4.75;4.00;;;;;11.17;71.42;100870.38;4865048;29;45535;-65
2022/11/24 08:12:33;;;;;;;;;4.25;3.00;;;;;11.13;71.35;100877.63;4862928;29;46269;-65
2022/11/24 08:14:59;;;;;;;;;8.50;4.00;;;;;11.15;71.51;100881.09;4871124;29;45370;-65
2022/11/24 08:17:24;;;;;;;;;6.00;6.00;;;;;11.17;71.57;100873.91;4865114;29;45477;-65
2022/11/24 08:19:49;;;;;;;;;8.00;5.00;;;;;11.17;71.66;100873.03;4857861;29;45779;-65
2022/11/24 08:22:15;;;;;;;;;5.50;3.00;;;;;11.23;71.57;100899.56;4864565;29;45471;-65
2022/11/24 08:24:45;;;;;;;;;5.50;4.75;;;;;11.25;71.50;100893.22;4865476;29;45353;-65
2022/11/24 08:27:11;;;;;;;;;8.50;3.00;;;;;11.24;71.94;100898.63;4862450;29;45512;-65
2022/11/24 08:29:36;;;;;;;;;3.75;3.75;;;;;11.15;71.90;100888.25;4864736;29;45344;-66
2022/11/24 08:32:02;;;;;;;;;8.50;5.25;;;;;11.21;71.55;100894.28;4863213;29;46383;-65
2022/11/24 08:34:27;;;;;;;;;4.50;2.75;;;;;11.25;71.59;100900.38;4863030;29;45659;-65
2022/11/24 08:36:53;;;;;;;;;4.50;4.50;;;;;11.24;72.03;100909.31;4864510;29;45518;-65
2022/11/24 08:39:19;;;;;;;;;5.00;4.00;;;;;11.23;72.16;100902.25;4862871;29;46207;-65
2022/11/24 08:41:44;;;;;;;;;3.00;1.50;;;;;11.23;71.94;100911.13;4864012;29;46318;-63
2022/11/24 08:44:10;;;;;;;;;4.00;3.00;;;;;11.27;71.95;100910.09;4864009;29;45464;-64
2022/11/24 08:46:36;;;;;;;;;5.00;3.25;;;;;11.26;72.01;100913.69;4863205;29;45645;-64
2022/11/24 08:49:01;;;;;;;;;4.00;3.00;;;;;11.27;72.08;100918.09;4853324;29;45872;-65
2022/11/24 08:51:27;;;;;;;;;3.00;3.00;;;;;11.25;72.32;100908.41;4865516;29;45266;-64
2022/11/24 08:53:55;;;;;;;;;5.00;4.00;;;;;11.23;72.42;100905.78;4865095;29;45487;-64
2022/11/24 08:56:20;;;;;;;;;7.50;4.00;;;;;11.30;72.54;100914.47;4859888;29;45336;-64
2022/11/24 08:58:45;;;;;;;;;6.50;4.00;;;;;11.22;72.31;100893.34;4862165;29;45497;-64
2022/11/24 09:01:16;;;;;;;;;5.00;3.50;;;;;11.31;72.35;100921.56;4865174;29;45455;-65
2022/11/24 09:03:43;;;;;;;;;6.25;4.25;;;;;11.30;72.67;100925.16;4864241;29;45286;-65
2022/11/24 09:06:09;;;;;;;;;6.25;5.50;;;;;11.30;72.60;100928.69;4862661;29;45390;-64
2022/11/24 09:08:36;;;;;;;;;6.50;4.00;;;;;11.32;72.65;100921.50;4863746;29;45533;-65
2022/11/24 09:11:04;;;;;;;;;3.00;3.00;;;;;11.30;72.57;100912.66;4864563;29;46112;-65
2022/11/24 09:13:30;;;;;;;;;4.25;3.00;;;;;11.35;72.87;100923.22;4861276;29;46418;-65
2022/11/24 09:15:55;;;;;;;;;4.00;2.00;;;;;11.36;72.52;100918.72;4860104;29;45488;-65
2022/11/24 09:18:21;;;;;;;;;3.00;3.00;;;;;11.39;72.83;100921.31;4862166;29;45395;-65
2022/11/24 09:20:46;;;;;;;;;2.00;1.75;;;;;11.39;72.75;100918.63;4856961;29;46284;-65
2022/11/24 09:23:12;;;;;;;;;6.50;2.00;;;;;11.36;72.84;100919.63;4865596;29;45355;-65
2022/11/24 09:25:38;;;;;;;;;2.25;2.25;;;;;11.36;72.86;100924.06;4865981;29;45331;-65
2022/11/24 09:28:03;;;;;;;;;5.50;3.00;;;;;11.36;72.96;100924.06;4846321;29;54433;-65
2022/11/24 09:30:28;;;;;;;;;3.25;3.00;;;;;11.35;73.13;100923.22;4860250;29;47137;-65
2022/11/24 09:32:55;;;;;;;;;1.75;1.75;;;;;11.38;73.51;100909.75;4852949;29;45324;-65
2022/11/24 09:35:20;;;;;;;;;2.50;1.50;;;;;11.42;72.99;100916.72;4859583;29;45534;-65
2022/11/24 09:37:47;;;;;;;;;2.75;2.00;;;;;11.42;73.04;100906.03;4857290;29;45468;-65
2022/11/24 09:40:14;;;;;;;;;3.00;2.75;;;;;11.47;73.16;100913.91;4861395;29;45626;-65
2022/11/24 09:43:02;;;;;;;;;2.75;1.75;;;;;11.46;73.27;100915.72;4862935;29;45651;-65
2022/11/24 09:45:42;;;;;;;;;2.00;2.00;;;;;11.50;73.49;100916.47;4862024;29;45531;-64
2022/11/24 09:48:18;;;;;;;;;4.50;2.50;;;;;11.53;73.11;100913.72;4859845;29;45508;-65
2022/11/24 09:50:47;;;;;;;;;3.25;2.00;;;;;11.50;73.26;100901.31;4862428;29;45483;-65
2022/11/24 09:53:24;;;;;;;;;4.50;2.00;;;;;11.59;73.05;100912.63;4844419;29;45879;-65
2022/11/24 09:55:52;;;;;;;;;4.50;2.00;;;;;11.61;73.00;100914.34;4861221;29;45315;-65
2022/11/24 09:58:42;;;;;;;;;5.00;3.00;;;;;11.66;73.20;100925.75;4860116;29;45316;-65
2022/11/24 10:01:16;;;;;;;;;3.25;3.25;;;;;11.71;73.28;100935.41;4863787;29;45755;-65
2022/11/24 10:03:44;;;;;;;;;4.25;2.00;;;;;11.71;73.09;100938.97;4863707;29;45689;-64
2022/11/24 10:06:22;;;;;;;;;7.00;4.75;;;;;11.74;73.10;100937.97;4861583;29;46059;-65
2022/11/24 10:09:00;;;;;;;;;3.75;2.50;;;;;11.79;72.93;100950.25;4843981;29;45432;-65
2022/11/24 10:11:55;;;;;;;;;3.00;1.75;;;;;11.80;72.62;100945.78;4856447;29;45425;-65
2022/11/24 10:14:40;;;;;;;;;5.75;2.50;;;;;11.82;72.78;100944.78;4845784;29;45540;-65
2022/11/24 10:17:39;;;;;;;;;4.00;3.25;;;;;11.88;72.78;100933.03;4868089;29;45497;-65
2022/11/24 10:20:17;;;;;;;;;5.50;3.00;;;;;11.90;72.88;100936.53;4862420;29;45618;-65
2022/11/24 10:23:01;;;;;;;;;3.00;3.00;;;;;11.92;72.82;100925.81;4862426;29;46253;-64
2022/11/24 10:25:35;;;;;;;;;2.25;2.00;;;;;11.85;72.57;100907.25;4858424;29;45360;-65
2022/11/24 10:28:10;;;;;;;;;4.00;3.00;;;;;11.96;72.71;100919.41;4849759;29;45528;-65
2022/11/24 10:30:36;;;;;;;;;5.00;5.00;;;;;11.96;72.68;100908.69;4861811;29;46055;-65
2022/11/24 10:33:11;;;;;;;;;1.75;1.75;;;;;11.95;72.69;100899.81;4866469;29;45521;-65
2022/11/24 10:35:44;;;;;;;;;2.75;2.00;;;;;12.01;72.72;100907.63;4863401;29;45706;-65
2022/11/24 10:38:22;;;;;;;;;2.50;2.00;;;;;12.06;72.54;100910.13;4864441;29;45430;-65
2022/11/24 10:40:53;;;;;;;;;2.50;2.00;;;;;12.05;72.57;100903.03;4867011;29;45383;-65
2022/11/24 10:43:18;;;;;;;;;3.25;2.25;;;;;12.06;72.33;100899.41;4867533;29;46851;-64
2022/11/24 10:45:44;;;;;;;;;4.25;4.00;;;;;12.09;72.69;100890.41;4866329;29;45333;-64
2022/11/24 10:48:22;;;;;;;;;6.50;2.00;;;;;12.04;72.75;100879.88;4865201;29;45452;-65
2022/11/24 10:50:47;;;;;;;;;5.00;3.50;;;;;12.16;72.59;100895.50;4864677;29;45606;-64
2022/11/24 10:53:25;;;;;;;;;4.75;3.75;;;;;12.20;72.65;100888.22;4865762;29;45388;-64
2022/11/24 10:55:56;;;;;;;;;4.00;2.00;;;;;12.23;72.35;100890.78;4863156;29;45730;-64
2022/11/24 10:58:29;;;;;;;;;3.25;2.50;;;;;12.26;72.65;100884.44;4843838;29;45458;-65
2022/11/24 11:01:00;;;;;;;;;4.75;4.00;;;;;12.27;72.58;100892.41;4846568;29;45717;-65
2022/11/24 11:03:30;;;;;;;;;5.00;3.75;;;;;12.28;72.53;100885.25;4869163;29;45649;-65
2022/11/24 11:06:02;;;;;;;;;3.25;3.25;;;;;12.25;72.52;100872.00;4861628;29;45350;-65
2022/11/24 11:08:31;;;;;;;;;6.00;5.75;;;;;12.34;72.00;100877.88;4865953;29;45362;-65
2022/11/24 11:11:19;;;;;;;;;7.00;4.50;;;;;12.38;72.21;100874.16;4863067;29;45421;-65
2022/11/24 11:13:53;;;;;;;;;6.00;4.00;;;;;12.36;72.06;100859.06;4848977;29;46108;-65
2022/11/24 11:16:30;;;;;;;;;6.00;4.00;;;;;12.41;71.93;100871.38;4864680;29;45382;-65
2022/11/24 11:18:55;;;;;;;;;5.50;5.50;;;;;12.45;72.47;100864.09;4863624;29;46088;-65
2022/11/24 11:21:30;;;;;;;;;3.50;3.00;;;;;12.49;72.23;100855.00;4865204;29;45248;-65
2022/11/24 11:23:56;;;;;;;;;7.50;5.25;;;;;12.53;71.91;100858.41;4862877;29;45614;-65
2022/11/24 11:26:26;;;;;;;;;5.25;5.00;;;;;12.59;71.80;100860.88;4863649;29;45427;-64